Terminal Aerodrome Forecast
Issued by NWS

Home | Current Version | Previous Version | Graphics & Text | Print | Product List | Glossary On
Versions: 1 2 3 4 5 6 7 8 9 10 11 12 13 14 15 16 17 18 19 20 21 22 23 24 25 26 27 28 29 30 31 32
000
FTUS43 KLOT 010843 AAA
TAFORD
TAF AMD
KORD 010843Z 0109/0212 32004KT P6SM SKC
     FM011500 02007KT P6SM FEW250
     FM012000 08007KT P6SM FEW050 SCT250
     FM020200 16004KT P6SM BKN180
     FM020800 23004KT P6SM BKN100=

USA.gov is the U.S. government's official web portal to all federal, state and local government web resources and services.